Time;durP1;ratioP1;P1;durP2;ratioP2;P2;SDS_P1;SDS_P2;PMS_P1;PMS_P2;Temp;Humidity;BMP_temperature;BMP_pressure;BME280_temperature;BME280_humidity;BME280_pressure;Samples;Min_cycle;Max_cycle;Signal;HPM_P1;HPM_P2
2022/01/20 00:27:13;;;;;;;22.58;3.20;;;;;;;2.52;100.00;101352.66;10016307;29;20463;-64
2022/01/20 00:32:12;;;;;;;29.38;2.88;;;;;;;2.69;100.00;101337.25;10011426;29;20574;-64
2022/01/20 00:37:16;;;;;;;28.85;3.42;;;;;;;2.72;100.00;101328.63;10043427;29;20051;-63
2022/01/20 00:42:13;;;;;;;32.05;4.30;;;;;;;2.80;100.00;101329.28;10011180;29;20075;-62
2022/01/20 00:47:10;;;;;;;22.00;2.95;;;;;;;2.76;100.00;101320.03;10018123;29;20040;-63
2022/01/20 00:52:07;;;;;;;29.17;3.17;;;;;;;2.71;100.00;101337.78;10010847;29;20044;-63
2022/01/20 00:57:04;;;;;;;23.00;3.33;;;;;;;2.78;100.00;101324.09;10033876;29;20478;-62
2022/01/20 01:02:05;;;;;;;15.07;2.67;;;;;;;2.78;100.00;101334.91;10030975;29;20072;-64
2022/01/20 01:12:17;;;;;;;18.63;2.50;;;;;;;2.86;100.00;101341.78;10011330;29;20055;-63
2022/01/20 01:27:07;;;;;;;14.60;1.85;;;;;;;2.84;100.00;101362.81;10015822;29;20071;-63
2022/01/20 01:32:07;;;;;;;8.82;1.92;;;;;;;2.56;100.00;101350.28;10007946;29;20167;-63
2022/01/20 01:37:07;;;;;;;19.52;2.83;;;;;;;2.24;100.00;101345.50;10021805;29;20131;-64
2022/01/20 01:42:03;;;;;;;12.73;1.65;;;;;;;2.00;100.00;101348.38;10014129;29;20097;-64
2022/01/20 01:47:00;;;;;;;10.23;2.45;;;;;;;2.00;100.00;101358.34;10016508;29;20086;-63
2022/01/20 01:51:56;;;;;;;12.43;1.70;;;;;;;2.03;100.00;101363.25;10021082;29;20499;-63
2022/01/20 01:56:53;;;;;;;10.93;1.48;;;;;;;2.12;100.00;101375.25;10009626;29;20055;-64
2022/01/20 02:01:50;;;;;;;11.55;1.63;;;;;;;2.19;100.00;101367.00;10001949;29;20075;-64
2022/01/20 02:22:42;;;;;;;11.70;1.27;;;;;;;2.07;100.00;101342.81;10001606;29;20044;-63
2022/01/20 02:27:39;;;;;;;5.13;2.15;;;;;;;2.06;100.00;101368.13;10019885;29;20143;-63
2022/01/20 02:32:35;;;;;;;18.73;1.80;;;;;;;1.95;100.00;101355.53;9998894;29;20075;-62
2022/01/20 02:37:32;;;;;;;10.30;1.17;;;;;;;1.96;100.00;101355.31;10007160;29;20048;-65
2022/01/20 02:47:43;;;;;;;12.93;2.03;;;;;;;1.88;100.00;101348.44;10019408;29;20091;-63
2022/01/20 02:52:40;;;;;;;20.55;3.83;;;;;;;1.87;100.00;101360.28;9999180;29;20044;-64
2022/01/20 02:57:36;;;;;;;13.70;2.30;;;;;;;1.86;100.00;101358.66;10011558;29;20096;-64
2022/01/20 03:02:33;;;;;;;16.30;1.80;;;;;;;1.77;100.00;101343.13;9998915;29;20082;-63
2022/01/20 03:07:30;;;;;;;12.93;2.75;;;;;;;1.74;100.00;101376.78;10015590;29;20190;-65
2022/01/20 03:12:27;;;;;;;27.13;3.47;;;;;;;1.66;100.00;101363.69;9999704;29;20574;-65
2022/01/20 03:17:30;;;;;;;16.45;2.60;;;;;;;1.66;100.00;101379.88;10016008;29;20047;-64
2022/01/20 03:22:26;;;;;;;25.33;3.45;;;;;;;1.62;100.00;101374.13;10038286;29;20080;-63
2022/01/20 03:27:23;;;;;;;21.58;2.78;;;;;;;1.53;100.00;101401.72;10006758;29;20541;-63
2022/01/20 03:32:20;;;;;;;22.02;2.90;;;;;;;1.49;100.00;101381.72;9999276;29;20044;-63
2022/01/20 03:37:16;;;;;;;14.57;1.83;;;;;;;1.48;100.00;101378.19;10005996;29;20048;-64
2022/01/20 03:42:13;;;;;;;10.07;1.83;;;;;;;1.45;100.00;101389.44;10000391;29;20044;-64
2022/01/20 03:47:11;;;;;;;15.13;2.25;;;;;;;1.51;100.00;101398.44;10016518;29;20135;-64
2022/01/20 03:52:07;;;;;;;12.15;2.25;;;;;;;1.51;100.00;101420.00;10009972;29;20040;-66
2022/01/20 03:57:04;;;;;;;16.40;2.00;;;;;;;1.49;100.00;101422.13;10020061;29;20043;-66
2022/01/20 04:02:00;;;;;;;11.98;1.25;;;;;;;1.38;100.00;101424.63;10036185;29;20044;-63
2022/01/20 04:06:57;;;;;;;6.70;1.83;;;;;;;1.29;100.00;101439.53;10008545;29;20048;-64
2022/01/20 04:11:54;;;;;;;11.10;1.40;;;;;;;1.23;100.00;101429.69;10002008;29;20452;-65
2022/01/20 04:21:54;;;;;;;12.85;1.73;;;;;;;1.22;100.00;101465.78;9997961;29;20692;-66
2022/01/20 04:26:50;;;;;;;11.43;1.85;;;;;;;1.09;100.00;101466.03;10005216;29;20502;-66
2022/01/20 04:31:48;;;;;;;11.15;1.90;;;;;;;1.16;100.00;101466.72;10002922;29;20055;-65
2022/01/20 04:36:47;;;;;;;7.20;2.13;;;;;;;1.08;100.00;101464.41;10009746;29;20071;-65
2022/01/20 04:41:44;;;;;;;17.67;1.88;;;;;;;0.98;100.00;101481.97;9997988;29;20507;-65
2022/01/20 04:57:14;;;;;;;13.43;1.35;;;;;;;0.95;100.00;101495.91;10011862;29;20043;-62
2022/01/20 05:02:11;;;;;;;15.98;2.03;;;;;;;0.92;100.00;101504.44;10002667;29;20067;-63
2022/01/20 05:07:10;;;;;;;21.40;2.22;;;;;;;0.95;100.00;101509.38;10019428;29;20048;-64
2022/01/20 05:12:10;;;;;;;12.38;1.80;;;;;;;0.93;100.00;101519.56;10001394;29;20110;-65
2022/01/20 05:17:07;;;;;;;18.85;2.75;;;;;;;0.92;100.00;101520.59;10027391;29;20135;-65
2022/01/20 05:22:03;;;;;;;15.35;2.03;;;;;;;0.92;100.00;101520.59;10021848;29;20044;-64
2022/01/20 05:27:00;;;;;;;20.15;3.97;;;;;;;0.95;100.00;101530.06;10010720;29;20044;-63
2022/01/20 05:31:57;;;;;;;17.27;2.15;;;;;;;0.99;100.00;101542.84;10017080;29;20129;-62
2022/01/20 05:36:53;;;;;;;18.40;2.42;;;;;;;1.02;100.00;101553.16;10037276;29;20043;-64
2022/01/20 05:41:50;;;;;;;12.88;1.75;;;;;;;1.02;100.00;101557.72;10016352;29;20171;-64
2022/01/20 05:46:49;;;;;;;12.85;2.30;;;;;;;1.07;100.00;101575.84;10016750;29;20087;-66
2022/01/20 05:51:47;;;;;;;17.48;3.33;;;;;;;1.11;100.00;101582.44;10012242;29;20056;-67
2022/01/20 05:56:44;;;;;;;14.13;2.20;;;;;;;1.13;100.00;101588.41;10000164;29;20193;-67
2022/01/20 06:01:41;;;;;;;9.30;1.55;;;;;;;1.12;100.00;101578.69;10007285;29;20131;-66
2022/01/20 06:06:37;;;;;;;16.27;2.38;;;;;;;1.13;100.00;101580.31;10027991;29;20064;-66
2022/01/20 06:11:34;;;;;;;22.38;4.35;;;;;;;1.03;100.00;101565.56;10017766;29;20074;-65
2022/01/20 06:16:31;;;;;;;19.48;2.63;;;;;;;1.07;100.00;101571.31;10009969;29;20052;-67
2022/01/20 06:21:28;;;;;;;20.67;1.63;;;;;;;1.05;100.00;101589.56;10013690;29;20054;-67
2022/01/20 06:26:25;;;;;;;23.92;3.38;;;;;;;1.06;100.00;101585.81;9999685;29;20485;-65
2022/01/20 06:31:21;;;;;;;19.95;2.20;;;;;;;1.03;100.00;101589.81;9999996;29;20048;-65
2022/01/20 06:36:18;;;;;;;14.32;1.80;;;;;;;1.03;100.00;101619.44;10007029;29;20076;-66
2022/01/20 06:41:14;;;;;;;17.23;3.00;;;;;;;1.05;100.00;101622.72;10008770;29;20044;-66
2022/01/20 06:46:11;;;;;;;19.38;3.25;;;;;;;1.05;100.00;101625.41;10007878;29;20115;-66
2022/01/20 06:51:08;;;;;;;18.17;2.90;;;;;;;1.01;100.00;101626.91;10013775;29;20076;-66
2022/01/20 06:56:04;;;;;;;20.05;2.65;;;;;;;1.02;100.00;101639.34;9999803;29;20044;-66
2022/01/20 07:01:01;;;;;;;19.63;3.00;;;;;;;0.99;100.00;101645.16;9998232;29;20474;-65
2022/01/20 07:05:57;;;;;;;21.23;2.10;;;;;;;1.02;100.00;101650.13;9998830;29;20044;-65
2022/01/20 07:10:54;;;;;;;20.08;2.30;;;;;;;1.05;100.00;101655.03;10005559;29;20063;-65
2022/01/20 07:15:50;;;;;;;23.67;2.47;;;;;;;1.09;100.00;101649.16;10004592;29;20043;-66
2022/01/20 07:20:47;;;;;;;18.83;2.78;;;;;;;1.08;100.00;101642.16;10000127;29;20048;-65
2022/01/20 07:25:43;;;;;;;22.55;2.65;;;;;;;1.04;100.00;101658.78;10005836;29;20041;-66
2022/01/20 07:30:40;;;;;;;18.30;2.78;;;;;;;1.03;100.00;101662.50;9998986;29;20044;-65
2022/01/20 07:35:37;;;;;;;18.38;2.47;;;;;;;1.05;100.00;101681.97;10006562;29;20051;-66
2022/01/20 07:40:34;;;;;;;18.63;2.35;;;;;;;1.09;100.00;101693.13;9997893;29;20107;-66
2022/01/20 07:45:31;;;;;;;21.13;2.75;;;;;;;1.14;100.00;101706.72;10026050;29;20052;-66
2022/01/20 07:50:27;;;;;;;24.02;3.72;;;;;;;1.19;100.00;101708.72;9996552;29;20112;-66
2022/01/20 07:55:24;;;;;;;18.55;2.75;;;;;;;1.16;100.00;101725.31;10013154;29;20052;-66
2022/01/20 08:00:21;;;;;;;20.50;4.40;;;;;;;1.24;100.00;101733.06;10006756;29;20044;-67
2022/01/20 08:05:18;;;;;;;19.40;2.35;;;;;;;1.33;100.00;101739.78;10014781;29;20047;-68
2022/01/20 08:10:14;;;;;;;22.15;2.90;;;;;;;1.44;100.00;101738.16;10013033;29;20056;-67
2022/01/20 08:15:12;;;;;;;19.88;3.55;;;;;;;1.44;100.00;101732.78;10015360;29;20047;-68
2022/01/20 08:20:10;;;;;;;16.27;3.00;;;;;;;1.35;100.00;101743.06;10017392;29;20084;-68
2022/01/20 08:25:10;;;;;;;13.15;2.25;;;;;;;1.36;100.00;101730.41;10004484;29;20048;-68
2022/01/20 08:30:12;;;;;;;17.52;2.03;;;;;;;1.28;100.00;101718.09;10007053;29;20067;-68
2022/01/20 08:35:09;;;;;;;12.93;1.45;;;;;;;1.35;100.00;101718.00;10006979;29;20143;-68
2022/01/20 08:40:14;;;;;;;16.98;1.90;;;;;;;1.32;100.00;101719.25;10017906;29;20064;-67
2022/01/20 08:45:13;;;;;;;12.40;1.60;;;;;;;1.37;100.00;101735.56;10002829;29;20083;-68
2022/01/20 08:50:11;;;;;;;12.10;1.75;;;;;;;1.51;100.00;101719.16;10039587;29;20052;-68
2022/01/20 08:55:15;;;;;;;16.17;2.10;;;;;;;1.59;100.00;101732.31;10028997;29;20111;-68
2022/01/20 09:00:13;;;;;;;13.70;2.25;;;;;;;1.64;100.00;101727.03;10019175;29;20494;-68
2022/01/20 09:05:10;;;;;;;13.65;2.03;;;;;;;1.63;100.00;101739.72;10036732;29;20047;-66
2022/01/20 09:10:08;;;;;;;15.38;1.98;;;;;;;1.77;100.00;101740.31;10016559;29;20127;-66
2022/01/20 09:15:28;;;;;;;14.30;2.78;;;;;;;1.84;100.00;101735.63;10016392;29;20078;-68
2022/01/20 09:20:25;;;;;;;27.55;3.35;;;;;;;2.01;100.00;101732.22;10016429;29;20122;-66
2022/01/20 09:25:22;;;;;;;16.50;2.35;;;;;;;2.20;100.00;101749.09;10017173;29;20082;-66
2022/01/20 09:30:21;;;;;;;15.45;2.80;;;;;;;1.98;100.00;101770.47;10008787;29;20143;-66
2022/01/20 09:35:17;;;;;;;8.23;1.60;;;;;;;1.80;100.00;101769.50;10019369;29;20127;-65
2022/01/20 09:40:14;;;;;;;16.70;2.88;;;;;;;1.82;100.00;101767.38;10003906;29;20083;-67
2022/01/20 09:45:12;;;;;;;14.00;2.58;;;;;;;1.99;100.00;101799.06;10012000;29;20510;-66
2022/01/20 09:50:11;;;;;;;6.22;1.40;;;;;;;1.71;100.00;101792.47;10015806;29;20111;-66
2022/01/20 09:55:14;;;;;;;11.05;1.27;;;;;;;1.74;100.00;101781.22;10009271;29;20155;-65
2022/01/20 10:00:14;;;;;;;8.30;1.33;;;;;;;1.60;100.00;101807.59;10000372;29;20661;-66
2022/01/20 10:05:10;;;;;;;15.05;2.53;;;;;;;1.54;100.00;101794.19;10007559;29;20075;-68
2022/01/20 10:10:08;;;;;;;13.80;1.50;;;;;;;1.58;100.00;101808.84;10026493;29;20083;-70
2022/01/20 10:15:08;;;;;;;7.00;1.40;;;;;;;2.27;100.00;101791.06;10012577;29;20040;-70
2022/01/20 10:20:07;;;;;;;10.32;1.92;;;;;;;2.40;100.00;101800.00;10007908;29;20052;-70
2022/01/20 10:25:05;;;;;;;17.27;2.45;;;;;;;2.13;100.00;101832.84;10009387;29;20080;-70
2022/01/20 10:30:11;;;;;;;9.23;1.60;;;;;;;1.96;100.00;101818.41;10009165;29;20052;-70
2022/01/20 10:35:09;;;;;;;11.55;1.48;;;;;;;1.74;100.00;101827.06;10009044;29;20054;-70
2022/01/20 10:40:10;;;;;;;9.32;2.72;;;;;;;1.36;100.00;101833.63;10008933;29;20087;-70
2022/01/20 10:45:08;;;;;;;2.90;0.55;;;;;;;1.14;100.00;101840.53;10008164;29;20098;-69
2022/01/20 10:50:22;;;;;;;5.07;0.90;;;;;;;1.23;100.00;101823.88;10011855;29;20051;-68
2022/01/20 10:55:28;;;;;;;6.47;0.70;;;;;;;1.79;100.00;101816.41;10026282;29;20083;-67
2022/01/20 11:00:26;;;;;;;4.15;0.57;;;;;;;1.75;100.00;101811.72;10009010;29;20056;-66
2022/01/20 11:05:24;;;;;;;6.85;1.15;;;;;;;1.87;100.00;101790.97;10011584;29;20067;-68
2022/01/20 11:10:21;;;;;;;12.00;1.15;;;;;;;2.02;100.00;101795.88;10012009;29;20047;-67
2022/01/20 11:15:20;;;;;;;8.43;1.17;;;;;;;2.22;100.00;101804.44;10017428;29;20131;-67
2022/01/20 11:20:21;;;;;;;12.90;1.50;;;;;;;2.36;100.00;101791.53;10009784;29;20110;-67
2022/01/20 11:25:21;;;;;;;7.55;1.40;;;;;;;2.60;100.00;101789.63;10015413;29;20047;-66
2022/01/20 11:30:26;;;;;;;17.92;1.88;;;;;;;3.02;100.00;101765.09;9993941;29;20494;-67
2022/01/20 11:35:35;;;;;;;12.68;2.13;;;;;;;3.67;100.00;101750.25;10003345;29;20615;-66
2022/01/20 11:40:31;;;;;;;14.15;1.30;;;;;;;3.66;100.00;101754.00;10008627;29;20151;-66
2022/01/20 11:45:32;;;;;;;9.48;1.70;;;;;;;3.81;94.58;101748.03;10012902;29;20052;-66
2022/01/20 11:50:29;;;;;;;15.63;4.60;;;;;;;3.94;90.23;101766.63;10023714;29;20151;-66
2022/01/20 11:55:26;;;;;;;11.82;3.28;;;;;;;3.72;85.32;101769.25;10020364;29;20114;-66
2022/01/20 12:00:26;;;;;;;16.30;2.42;;;;;;;3.74;86.59;101760.91;10016996;29;20649;-66
2022/01/20 12:05:28;;;;;;;9.73;1.92;;;;;;;3.76;88.59;101769.56;10012665;29;20056;-67
2022/01/20 12:10:28;;;;;;;8.35;1.52;;;;;;;3.58;87.44;101779.59;9995973;29;20212;-66
2022/01/20 12:15:24;;;;;;;17.50;4.13;;;;;;;3.67;86.56;101771.09;10004942;29;20072;-66
2022/01/20 12:20:22;;;;;;;7.70;1.65;;;;;;;3.52;82.45;101756.22;10019108;29;20047;-66
2022/01/20 12:25:26;;;;;;;15.52;4.03;;;;;;;3.50;80.78;101761.03;10027822;28;20465;-67
2022/01/20 12:30:24;;;;;;;14.73;3.30;;;;;;;3.86;81.46;101748.09;9959631;29;20084;-67
2022/01/20 12:35:20;;;;;;;9.90;1.80;;;;;;;4.06;81.48;101752.16;9996419;29;20097;-66
2022/01/20 12:40:21;;;;;;;12.80;1.67;;;;;;;4.69;79.86;101761.69;9995990;29;20056;-66
2022/01/20 12:51:12;;;;;;;3.60;0.80;;;;;;;3.44;100.00;101808.00;10013772;29;20137;-66
2022/01/20 12:56:12;;;;;;;5.63;1.23;;;;;;;2.18;100.00;101808.69;10007089;29;20131;-66
2022/01/20 13:01:08;;;;;;;8.30;1.40;;;;;;;1.69;100.00;101791.88;10013659;29;20099;-67
2022/01/20 13:06:08;;;;;;;6.95;1.65;;;;;;;1.50;100.00;101801.09;10005391;29;20044;-66
2022/01/20 13:11:14;;;;;;;7.03;1.30;;;;;;;1.61;100.00;101792.22;10011148;29;20111;-65
2022/01/20 13:16:15;;;;;;;11.18;1.30;;;;;;;1.50;100.00;101810.00;10025698;29;20131;-66
2022/01/20 13:21:12;;;;;;;10.45;1.00;;;;;;;1.10;100.00;101844.78;10015434;29;20123;-66
2022/01/20 13:26:09;;;;;;;4.85;0.80;;;;;;;0.63;100.00;101846.13;10010197;29;20087;-66
2022/01/20 13:31:16;;;;;;;6.85;0.95;;;;;;;0.03;100.00;101861.19;10024836;29;20075;-66
2022/01/20 13:36:13;;;;;;;9.13;0.75;;;;;;;-0.06;100.00;101848.03;10002136;29;20471;-67
2022/01/20 13:41:13;;;;;;;8.20;2.28;;;;;;;0.18;100.00;101806.00;10009369;29;20083;-67
2022/01/20 13:46:20;;;;;;;1.25;0.22;;;;;;;0.45;100.00;101813.81;10002391;29;20585;-65
2022/01/20 13:51:25;;;;;;;10.45;1.20;;;;;;;0.72;100.00;101821.59;10036244;29;20090;-67
2022/01/20 13:56:21;;;;;;;7.65;0.82;;;;;;;0.90;100.00;101816.19;10025436;29;20519;-65
2022/01/20 14:01:20;;;;;;;4.85;1.25;;;;;;;1.12;100.00;101813.03;10014917;29;20083;-66
2022/01/20 14:06:17;;;;;;;5.03;0.82;;;;;;;1.37;100.00;101808.34;10001398;29;20044;-67
2022/01/20 14:11:15;;;;;;;11.82;1.30;;;;;;;1.43;100.00;101802.00;9998106;29;20051;-67
2022/01/20 14:16:13;;;;;;;8.52;1.77;;;;;;;1.32;100.00;101815.44;9982524;29;20135;-66
2022/01/20 14:21:17;;;;;;;9.63;1.50;;;;;;;1.30;100.00;101823.78;10007714;29;20052;-66
2022/01/20 14:26:22;;;;;;;13.05;1.45;;;;;;;1.41;100.00;101812.19;10021192;29;20127;-66
2022/01/20 14:31:18;;;;;;;8.73;1.60;;;;;;;1.51;100.00;101821.59;10003277;29;20063;-68
2022/01/20 14:36:15;;;;;;;14.85;1.42;;;;;;;1.49;100.00;101839.91;10012906;29;20107;-68
2022/01/20 14:41:13;;;;;;;5.85;0.65;;;;;;;1.50;100.00;101833.44;10016457;29;20099;-67
2022/01/20 14:46:10;;;;;;;12.95;2.50;;;;;;;1.56;100.00;101838.75;10009441;29;20139;-66
2022/01/20 14:51:08;;;;;;;6.00;1.00;;;;;;;1.46;100.00;101860.88;10024647;29;20111;-69
2022/01/20 14:56:05;;;;;;;13.07;1.02;;;;;;;1.36;100.00;101865.97;10012473;29;20044;-66
2022/01/20 15:01:03;;;;;;;6.68;1.48;;;;;;;1.21;100.00;101870.94;9997919;29;20507;-65
2022/01/20 15:06:00;;;;;;;10.25;1.98;;;;;;;1.08;100.00;101885.38;10003501;29;20051;-66
2022/01/20 15:10:56;;;;;;;9.50;1.60;;;;;;;1.08;100.00;101871.09;9999036;29;20143;-67
2022/01/20 15:15:53;;;;;;;9.23;1.15;;;;;;;0.98;100.00;101874.34;9997181;29;20043;-67
2022/01/20 15:20:49;;;;;;;18.67;1.85;;;;;;;1.04;100.00;101893.13;9997740;29;20058;-67
2022/01/20 15:25:46;;;;;;;7.50;1.13;;;;;;;1.01;100.00;101904.31;9996399;29;20052;-67
2022/01/20 15:30:43;;;;;;;10.57;1.75;;;;;;;0.98;100.00;101903.97;10004640;29;20212;-66
2022/01/20 15:35:41;;;;;;;7.15;1.02;;;;;;;0.95;100.00;101913.31;10005546;29;20525;-69
2022/01/20 15:40:38;;;;;;;7.78;1.60;;;;;;;0.98;100.00;101926.31;10003494;29;20080;-66
2022/01/20 15:45:34;;;;;;;10.35;1.10;;;;;;;0.96;100.00;101933.81;9999066;29;20795;-67
2022/01/20 15:50:32;;;;;;;8.50;1.25;;;;;;;1.00;97.76;101937.69;10009688;29;20052;-67
2022/01/20 15:55:29;;;;;;;9.35;1.20;;;;;;;1.01;97.43;101939.34;10014940;29;20494;-67
2022/01/20 16:00:27;;;;;;;10.88;1.48;;;;;;;0.95;99.22;101932.16;10002801;29;20169;-67
2022/01/20 16:05:24;;;;;;;10.95;1.98;;;;;;;0.96;98.51;101952.66;10013020;29;20406;-63
2022/01/20 16:10:20;;;;;;;14.52;2.53;;;;;;;1.01;99.60;101955.50;10009822;29;20048;-67
2022/01/20 16:15:17;;;;;;;16.98;4.25;;;;;;;0.99;100.00;101967.53;10016578;29;20087;-67
2022/01/20 16:20:14;;;;;;;15.05;3.15;;;;;;;0.87;100.00;101978.22;9998156;29;20098;-67
2022/01/20 16:25:10;;;;;;;12.00;1.92;;;;;;;0.90;100.00;101980.47;10007657;29;20664;-67
2022/01/20 16:30:08;;;;;;;12.55;2.30;;;;;;;0.85;100.00;101999.16;9991933;29;20087;-67
2022/01/20 16:35:05;;;;;;;17.85;2.83;;;;;;;0.86;100.00;102006.22;9995174;29;20416;-67
2022/01/20 16:40:04;;;;;;;11.05;2.67;;;;;;;0.91;100.00;102014.44;10005524;29;20104;-68
2022/01/20 16:45:05;;;;;;;9.90;2.00;;;;;;;0.82;100.00;102021.16;10012265;29;20651;-67
2022/01/20 16:50:01;;;;;;;12.35;2.13;;;;;;;0.77;100.00;102037.16;10015753;29;20060;-67
2022/01/20 16:54:57;;;;;;;14.18;2.75;;;;;;;0.64;98.87;102051.53;10022709;29;20076;-66
2022/01/20 16:59:54;;;;;;;13.75;1.65;;;;;;;0.61;95.44;102068.13;10002733;29;20052;-66
2022/01/20 17:04:51;;;;;;;9.27;1.08;;;;;;;0.58;94.92;102074.75;9981318;29;20485;-66
2022/01/20 17:09:47;;;;;;;8.27;2.08;;;;;;;0.54;90.38;102073.53;10020907;29;20084;-66
2022/01/20 17:14:44;;;;;;;8.65;1.73;;;;;;;0.47;88.53;102078.16;10009141;29;20131;-66
2022/01/20 17:19:40;;;;;;;9.38;1.45;;;;;;;0.46;86.33;102098.00;10027762;29;20099;-66
2022/01/20 17:24:37;;;;;;;10.38;1.40;;;;;;;0.41;84.29;102095.16;10004941;29;20578;-66
2022/01/20 17:29:34;;;;;;;12.65;1.92;;;;;;;0.40;85.76;102120.41;10015148;29;20056;-66
2022/01/20 17:34:31;;;;;;;7.75;1.80;;;;;;;0.29;86.30;102132.69;10006102;29;20051;-65
2022/01/20 17:39:27;;;;;;;7.20;1.85;;;;;;;0.36;86.52;102146.09;10019263;29;20506;-67
2022/01/20 17:44:24;;;;;;;12.35;2.78;;;;;;;0.29;83.05;102145.31;10017961;29;20082;-67
2022/01/20 17:49:20;;;;;;;10.05;1.40;;;;;;;0.32;81.94;102150.25;10013161;29;20052;-68
2022/01/20 17:54:18;;;;;;;5.95;1.10;;;;;;;0.24;83.74;102158.59;10015505;29;20158;-68
2022/01/20 17:59:14;;;;;;;10.95;2.00;;;;;;;0.24;82.09;102174.72;10011163;29;20129;-68
2022/01/20 18:04:15;;;;;;;10.32;2.55;;;;;;;0.15;82.64;102183.00;10009595;29;20048;-68
2022/01/20 18:09:12;;;;;;;6.82;1.75;;;;;;;0.22;83.43;102188.38;10009272;29;20135;-73
2022/01/20 18:14:09;;;;;;;8.88;1.98;;;;;;;0.16;81.80;102211.59;10015171;29;20071;-73
2022/01/20 18:19:09;;;;;;;9.45;1.65;;;;;;;0.15;82.41;102217.97;10006761;29;20086;-74
2022/01/20 18:24:05;;;;;;;6.22;1.13;;;;;;;0.06;82.81;102221.94;10014115;29;21539;-73
2022/01/20 18:29:03;;;;;;;8.55;1.17;;;;;;;0.14;81.84;102216.34;10004645;29;20051;-73
2022/01/20 18:33:59;;;;;;;9.38;1.38;;;;;;;0.08;82.35;102225.25;10005872;29;20052;-73
2022/01/20 18:38:56;;;;;;;10.38;1.90;;;;;;;0.02;82.84;102234.16;10005804;29;20175;-74
2022/01/20 18:43:54;;;;;;;6.45;1.75;;;;;;;-0.02;84.65;102241.00;10014522;29;20055;-73
2022/01/20 18:48:53;;;;;;;3.88;0.82;;;;;;;0.02;81.83;102252.97;10001611;29;20071;-73
2022/01/20 18:53:50;;;;;;;3.38;1.17;;;;;;;-0.01;80.24;102258.78;10016393;29;20522;-73
2022/01/20 18:58:49;;;;;;;8.60;1.38;;;;;;;-0.07;81.69;102270.34;10013142;29;20048;-73
2022/01/20 19:03:46;;;;;;;5.63;1.20;;;;;;;-0.08;80.90;102279.47;10012461;29;20115;-74
2022/01/20 19:08:43;;;;;;;10.23;2.55;;;;;;;-0.15;81.65;102278.66;10026522;29;20055;-74
2022/01/20 19:13:41;;;;;;;6.50;1.33;;;;;;;-0.19;81.52;102282.78;9989597;29;20052;-73
2022/01/20 19:18:38;;;;;;;8.20;1.60;;;;;;;-0.23;80.69;102304.72;10002275;29;20064;-72
2022/01/20 19:23:34;;;;;;;5.05;1.10;;;;;;;-0.26;79.90;102301.59;10021185;29;20557;-73
2022/01/20 19:28:31;;;;;;;5.30;0.73;;;;;;;-0.23;79.81;102314.66;10021235;29;20509;-72
2022/01/20 19:33:27;;;;;;;5.43;1.17;;;;;;;-0.25;80.93;102327.47;10020449;29;20044;-73
2022/01/20 19:38:25;;;;;;;5.45;0.80;;;;;;;-0.25;80.92;102328.28;10012025;29;20525;-74
2022/01/20 19:43:22;;;;;;;12.88;3.83;;;;;;;-0.29;80.49;102334.28;10003124;29;20454;-73
2022/01/20 19:48:19;;;;;;;15.82;2.13;;;;;;;-0.33;79.50;102341.91;10023222;29;20502;-73
2022/01/20 19:53:17;;;;;;;7.60;1.95;;;;;;;-0.32;79.42;102348.97;10008954;29;20448;-73
2022/01/20 19:58:13;;;;;;;8.63;1.40;;;;;;;-0.29;79.71;102363.84;10022964;29;20055;-72
2022/01/20 20:03:15;;;;;;;10.07;1.38;;;;;;;-0.36;77.68;102374.59;10005669;29;20583;-72
2022/01/20 20:08:13;;;;;;;6.97;1.85;;;;;;;-0.40;78.08;102381.38;9991934;29;20392;-72
2022/01/20 20:13:10;;;;;;;5.38;1.20;;;;;;;-0.45;79.11;102386.56;9995630;29;20460;-72
2022/01/20 20:18:06;;;;;;;6.68;1.25;;;;;;;-0.43;78.41;102379.13;10009333;29;20499;-73
2022/01/20 20:23:03;;;;;;;6.15;1.40;;;;;;;-0.40;78.40;102384.06;10002890;29;20052;-72
2022/01/20 20:27:59;;;;;;;10.48;1.80;;;;;;;-0.37;78.55;102393.59;10006518;29;20044;-70
2022/01/20 20:32:56;;;;;;;9.75;2.58;;;;;;;-0.44;76.66;102393.59;9999260;29;20046;-70
2022/01/20 20:37:53;;;;;;;11.00;2.53;;;;;;;-0.35;77.57;102392.34;9999214;29;20091;-70
2022/01/20 20:42:49;;;;;;;10.70;2.80;;;;;;;-0.38;76.44;102406.19;10006247;29;20135;-72
2022/01/20 20:47:46;;;;;;;8.57;2.10;;;;;;;-0.39;76.27;102412.63;10010564;29;20043;-73
2022/01/20 20:52:43;;;;;;;4.65;1.00;;;;;;;-0.41;76.97;102420.06;10003418;29;20044;-70
2022/01/20 20:57:40;;;;;;;8.52;1.48;;;;;;;-0.48;77.32;102413.84;10031555;29;20570;-69
2022/01/20 21:02:37;;;;;;;5.72;1.30;;;;;;;-0.50;78.58;102422.09;10017745;29;20047;-70
2022/01/20 21:07:35;;;;;;;7.65;1.20;;;;;;;-0.58;78.08;102434.88;10036646;29;20051;-70
2022/01/20 21:12:32;;;;;;;6.07;1.55;;;;;;;-0.69;78.96;102439.81;10002088;29;20489;-70
2022/01/20 21:17:29;;;;;;;8.15;1.80;;;;;;;-0.76;79.60;102444.31;10001493;29;20108;-70
2022/01/20 21:22:26;;;;;;;7.63;1.98;;;;;;;-0.90;81.90;102442.59;10003997;29;20040;-70
2022/01/20 21:27:22;;;;;;;4.35;1.00;;;;;;;-0.76;81.96;102449.69;10007310;29;20562;-70
2022/01/20 21:32:19;;;;;;;13.80;1.73;;;;;;;-0.79;83.75;102450.09;10003572;29;20083;-70
2022/01/20 21:37:15;;;;;;;11.45;2.95;;;;;;;-0.82;84.48;102455.84;10001770;29;20051;-70
2022/01/20 21:42:12;;;;;;;9.82;1.42;;;;;;;-0.83;85.20;102464.94;10003554;29;20056;-70
2022/01/20 21:47:08;;;;;;;7.70;1.40;;;;;;;-0.94;87.14;102462.81;10004582;29;20585;-70
2022/01/20 21:52:09;;;;;;;7.35;1.95;;;;;;;-0.96;87.67;102464.88;10002505;29;20080;-69
2022/01/20 21:57:08;;;;;;;4.50;1.23;;;;;;;-1.01;87.54;102475.38;9999660;29;20581;-70
2022/01/20 22:02:05;;;;;;;7.57;2.67;;;;;;;-1.11;90.31;102479.25;10001779;29;20103;-71
2022/01/20 22:07:02;;;;;;;12.02;3.40;;;;;;;-1.20;93.16;102488.47;10025224;29;20047;-73
2022/01/20 22:11:59;;;;;;;8.90;1.63;;;;;;;-1.04;89.21;102497.22;10010588;29;20055;-71
2022/01/20 22:16:56;;;;;;;8.60;1.90;;;;;;;-1.04;91.76;102492.72;10025185;29;20102;-71
2022/01/20 22:21:53;;;;;;;7.22;1.27;;;;;;;-1.08;90.49;102500.31;10026194;29;20075;-69
2022/01/20 22:26:49;;;;;;;7.22;1.20;;;;;;;-1.02;90.02;102497.88;10013927;29;20048;-69
2022/01/20 22:31:47;;;;;;;9.77;1.23;;;;;;;-1.02;89.20;102498.72;10005819;29;20080;-70
2022/01/20 22:36:47;;;;;;;8.93;1.50;;;;;;;-1.06;88.79;102524.31;10028780;29;20063;-71
2022/01/20 22:41:45;;;;;;;5.90;1.27;;;;;;;-1.09;88.53;102521.97;10013258;29;20056;-72
2022/01/20 22:46:42;;;;;;;11.07;1.90;;;;;;;-1.06;88.33;102514.38;10019140;29;20060;-72
2022/01/20 22:51:39;;;;;;;5.05;1.27;;;;;;;-1.01;88.96;102537.13;10000579;29;20072;-70
2022/01/20 22:56:35;;;;;;;4.53;1.20;;;;;;;-1.23;93.84;102523.78;10012382;29;20075;-70
2022/01/20 23:01:31;;;;;;;9.23;1.50;;;;;;;-1.10;90.31;102539.94;10019181;29;20080;-70
2022/01/20 23:06:28;;;;;;;9.30;1.88;;;;;;;-1.04;88.28;102554.47;10010274;29;20430;-66
2022/01/20 23:11:24;;;;;;;8.23;1.60;;;;;;;-1.07;89.14;102550.31;10019986;29;20790;-67
2022/01/20 23:21:24;;;;;;;9.48;1.00;;;;;;;-1.12;88.11;102558.09;10021405;29;20092;-65
2022/01/20 23:26:23;;;;;;;6.30;1.17;;;;;;;-1.12;88.70;102576.91;10007974;29;20082;-65
2022/01/20 23:31:23;;;;;;;8.52;1.80;;;;;;;-1.04;89.80;102585.84;10015079;29;20078;-67
2022/01/20 23:36:21;;;;;;;7.93;1.10;;;;;;;-1.12;90.87;102589.50;10005509;29;20059;-66
2022/01/20 23:41:22;;;;;;;7.32;1.10;;;;;;;-1.06;91.12;102600.28;9998499;29;20072;-67
2022/01/20 23:51:39;;;;;;;7.45;1.10;;;;;;;-0.99;92.56;102592.28;9997907;29;20085;-66
2022/01/20 23:56:36;;;;;;;9.13;1.13;;;;;;;-0.98;93.33;102574.31;10001745;29;20051;-65
